Terminal Aerodrome Forecast
Issued by NWS

Current Version | Previous Version | Text Only | Print | Product List | Glossary Off
Versions: 1 2 3 4 5 6 7 8 9 10 11 12 13 14 15 16 17 18 19 20 21

000
FTUS41 KILN 011730
TAFLUK
TAF
KLUK 011730Z 0118/0218 23004KT P6SM VCTS BKN040CB
     FM020100 00000KT P6SM FEW050
     FM020500 00000KT 4SM BR FEW050
     FM020800 00000KT 2SM BR VCSH BKN040
     FM021400 27003KT P6SM BKN050=

USA.gov is the U.S. government's official web portal to all federal, state and local government web resources and services.